createdAt,value
2019-05-07T00:00:08.389Z,9.00
2019-05-07T00:01:20.023Z,9.00
2019-05-07T00:02:28.478Z,9.00
2019-05-07T00:03:33.594Z,8.90
2019-05-07T00:04:39.163Z,9.00
2019-05-07T00:05:44.117Z,9.00
2019-05-07T00:06:48.793Z,9.00
2019-05-07T00:07:53.894Z,9.00
2019-05-07T00:08:58.568Z,9.10
2019-05-07T00:10:03.930Z,9.10
2019-05-07T00:11:09.162Z,9.20
2019-05-07T00:12:13.832Z,9.20
2019-05-07T00:13:18.830Z,9.20
2019-05-07T00:14:23.815Z,9.20
2019-05-07T00:15:28.626Z,9.20
2019-05-07T00:16:33.327Z,9.20
2019-05-07T00:17:38.042Z,9.20
2019-05-07T00:18:42.996Z,9.20
2019-05-07T00:19:52.612Z,9.20
2019-05-07T00:20:57.349Z,9.20
2019-05-07T00:22:07.725Z,9.20
2019-05-07T00:23:12.529Z,9.20
2019-05-07T00:24:17.189Z,9.20
2019-05-07T00:25:23.003Z,9.10
2019-05-07T00:26:27.874Z,9.10
2019-05-07T00:27:34.997Z,9.10
2019-05-07T00:28:39.755Z,9.10
2019-05-07T00:29:47.029Z,9.10
2019-05-07T00:30:52.226Z,9.00
2019-05-07T00:31:57.232Z,9.00
2019-05-07T00:33:02.791Z,9.00
2019-05-07T00:34:07.694Z,9.00
2019-05-07T00:35:14.658Z,9.00
2019-05-07T00:36:32.486Z,9.00
2019-05-07T00:37:43.862Z,9.00
2019-05-07T00:38:55.283Z,9.00
2019-05-07T00:40:14.439Z,9.00
2019-05-07T00:41:31.872Z,9.00
2019-05-07T00:42:55.575Z,9.00
2019-05-07T00:44:03.224Z,9.00
2019-05-07T00:45:20.375Z,9.00
2019-05-07T00:46:24.307Z,9.00
2019-05-07T00:47:29.146Z,8.90
2019-05-07T00:48:34.199Z,8.90
2019-05-07T00:49:38.874Z,8.90
2019-05-07T00:50:45.469Z,8.90
2019-05-07T00:51:51.951Z,8.90
2019-05-07T00:52:57.005Z,8.90
2019-05-07T00:54:03.110Z,8.90
2019-05-07T00:55:08.176Z,8.80
2019-05-07T00:56:12.970Z,8.90
2019-05-07T00:57:17.849Z,8.90
2019-05-07T00:58:26.471Z,8.90
2019-05-07T00:59:29.364Z,8.90
2019-05-07T01:00:34.589Z,9.00
2019-05-07T01:01:39.324Z,9.00
2019-05-07T01:02:44.293Z,9.00
2019-05-07T01:03:49.177Z,9.10
2019-05-07T01:04:54.417Z,9.10
2019-05-07T01:05:59.125Z,9.10
2019-05-07T01:07:04.225Z,9.00
2019-05-07T01:08:13.177Z,9.10
2019-05-07T01:09:18.058Z,9.00
2019-05-07T01:10:22.829Z,9.00
2019-05-07T01:11:27.716Z,9.00
2019-05-07T01:12:33.002Z,9.00
2019-05-07T01:13:37.715Z,9.00
2019-05-07T01:14:42.421Z,9.00
2019-05-07T01:15:47.243Z,8.90
2019-05-07T01:16:52.961Z,8.90
2019-05-07T01:17:58.248Z,8.90
2019-05-07T01:19:03.014Z,8.80
2019-05-07T01:20:07.901Z,8.80
2019-05-07T01:21:13.295Z,8.80
2019-05-07T01:22:18.070Z,8.80
2019-05-07T01:23:28.157Z,8.80
2019-05-07T01:24:32.916Z,8.70
2019-05-07T01:25:38.266Z,8.70
2019-05-07T01:26:43.550Z,8.70
2019-05-07T01:27:48.239Z,8.70
2019-05-07T01:28:59.098Z,8.60
2019-05-07T01:30:04.515Z,8.60
2019-05-07T01:31:09.157Z,8.60
2019-05-07T01:32:24.186Z,8.60
2019-05-07T01:33:34.205Z,8.60
2019-05-07T01:34:45.261Z,8.60
2019-05-07T01:36:15.261Z,8.60
2019-05-07T01:37:20.183Z,8.50
2019-05-07T01:38:25.334Z,8.50
2019-05-07T01:39:32.472Z,8.50
2019-05-07T01:40:36.613Z,8.40
2019-05-07T01:41:42.070Z,8.40
2019-05-07T01:42:47.510Z,8.40
2019-05-07T01:43:52.425Z,8.40
2019-05-07T01:44:59.289Z,8.40
2019-05-07T01:46:04.000Z,8.40
2019-05-07T01:47:08.600Z,8.30
2019-05-07T01:48:14.317Z,8.30
2019-05-07T01:49:19.087Z,8.30
2019-05-07T01:50:23.779Z,8.30
2019-05-07T01:51:28.484Z,8.30
2019-05-07T01:52:33.309Z,8.30
2019-05-07T01:53:38.114Z,8.20
2019-05-07T01:54:43.364Z,8.20
2019-05-07T01:55:48.613Z,8.20
2019-05-07T01:56:54.010Z,8.20
2019-05-07T01:57:59.363Z,8.20
2019-05-07T01:59:04.482Z,8.20
2019-05-07T02:00:09.405Z,8.20
2019-05-07T02:01:14.344Z,8.20
2019-05-07T02:02:27.980Z,8.20
2019-05-07T02:03:56.144Z,8.20
2019-05-07T02:05:25.923Z,8.30
2019-05-07T02:06:48.411Z,8.20
2019-05-07T02:07:57.067Z,8.30
2019-05-07T02:09:10.260Z,8.20
2019-05-07T02:10:37.965Z,8.30
2019-05-07T02:11:45.538Z,8.30
2019-05-07T02:12:50.278Z,8.30
2019-05-07T02:13:55.687Z,8.20
2019-05-07T02:15:02.488Z,8.20
2019-05-07T02:16:07.567Z,8.20
2019-05-07T02:17:13.666Z,8.20
2019-05-07T02:18:19.047Z,8.20
2019-05-07T02:19:23.913Z,8.20
2019-05-07T02:20:28.616Z,8.20
2019-05-07T02:21:33.609Z,8.20
2019-05-07T02:22:38.344Z,8.10
2019-05-07T02:23:43.243Z,8.10
2019-05-07T02:24:48.570Z,8.10
2019-05-07T02:25:53.309Z,8.10
2019-05-07T02:26:57.992Z,8.10
2019-05-07T02:28:03.027Z,8.10
2019-05-07T02:29:07.950Z,8.10
2019-05-07T02:30:14.718Z,8.10
2019-05-07T02:31:22.959Z,8.10
2019-05-07T02:32:26.975Z,8.10
2019-05-07T02:33:34.843Z,8.10
2019-05-07T02:34:38.219Z,8.10
2019-05-07T02:35:43.914Z,8.10
2019-05-07T02:36:48.786Z,8.10
2019-05-07T02:38:13.738Z,8.10
2019-05-07T02:39:24.562Z,8.10
2019-05-07T02:40:34.485Z,8.10
2019-05-07T02:41:39.172Z,8.20
2019-05-07T02:42:44.442Z,8.10
2019-05-07T02:43:49.221Z,8.10
2019-05-07T02:45:07.327Z,8.20
2019-05-07T02:46:35.204Z,8.20
2019-05-07T02:47:43.698Z,8.20
2019-05-07T02:49:16.784Z,8.20
2019-05-07T02:50:32.984Z,8.10
2019-05-07T02:51:46.014Z,8.20
2019-05-07T02:53:13.794Z,8.20
2019-05-07T02:54:32.936Z,8.10
2019-05-07T02:55:43.395Z,8.10
2019-05-07T02:56:47.061Z,8.10
2019-05-07T02:57:53.995Z,8.10
2019-05-07T02:58:58.162Z,8.10
2019-05-07T03:00:04.538Z,8.10
2019-05-07T03:01:09.172Z,8.10
2019-05-07T03:02:14.057Z,8.10
2019-05-07T03:03:19.334Z,8.10
2019-05-07T03:04:25.418Z,8.10
2019-05-07T03:05:30.121Z,8.10
2019-05-07T03:06:35.116Z,8.10
2019-05-07T03:07:42.520Z,8.10
2019-05-07T03:08:47.009Z,8.10
2019-05-07T03:09:53.900Z,8.10
2019-05-07T03:10:58.116Z,8.10
2019-05-07T03:12:03.976Z,8.10
2019-05-07T03:13:09.001Z,8.00
2019-05-07T03:14:14.379Z,8.00
2019-05-07T03:15:19.403Z,8.00
2019-05-07T03:16:38.799Z,8.00
2019-05-07T03:17:33.286Z,8.00
2019-05-07T03:18:37.225Z,8.00
2019-05-07T03:19:43.746Z,8.00
2019-05-07T03:20:55.277Z,8.00
2019-05-07T03:21:59.928Z,7.90
2019-05-07T03:23:05.014Z,7.90
2019-05-07T03:24:22.499Z,7.90
2019-05-07T03:25:29.922Z,7.90
2019-05-07T03:26:39.439Z,7.90
2019-05-07T03:27:44.129Z,7.90
2019-05-07T03:28:59.859Z,7.90
2019-05-07T03:30:17.398Z,7.90
2019-05-07T03:31:37.872Z,7.90
2019-05-07T03:32:49.213Z,7.90
2019-05-07T03:34:00.291Z,7.90
2019-05-07T03:35:27.487Z,7.90
2019-05-07T03:36:46.592Z,7.90
2019-05-07T03:37:48.747Z,7.90
2019-05-07T03:38:53.827Z,7.90
2019-05-07T03:39:58.571Z,7.90
2019-05-07T03:41:03.833Z,7.90
2019-05-07T03:42:08.632Z,7.80
2019-05-07T03:43:14.175Z,7.80
2019-05-07T03:44:25.933Z,7.80
2019-05-07T03:45:58.475Z,7.80
2019-05-07T03:47:23.722Z,7.80
2019-05-07T03:48:28.884Z,7.80
2019-05-07T03:49:34.513Z,7.70
2019-05-07T03:50:42.850Z,7.70
2019-05-07T03:51:46.082Z,7.70
2019-05-07T03:52:50.769Z,7.80
2019-05-07T03:53:55.969Z,7.70
2019-05-07T03:55:03.679Z,7.70
2019-05-07T03:56:07.781Z,7.70
2019-05-07T03:57:15.630Z,7.70
2019-05-07T04:00:35.290Z,7.70
2019-05-07T04:01:42.884Z,7.70
2019-05-07T04:02:46.475Z,7.70
2019-05-07T04:03:53.246Z,7.80
2019-05-07T04:04:58.181Z,7.80
2019-05-07T04:06:04.039Z,7.80
2019-05-07T04:07:09.012Z,7.80
2019-05-07T04:08:14.041Z,7.80
2019-05-07T04:09:18.846Z,7.80
2019-05-07T04:10:23.574Z,7.80
2019-05-07T04:11:28.391Z,7.80
2019-05-07T04:12:34.299Z,7.80
2019-05-07T04:13:39.347Z,7.80
2019-05-07T04:14:44.051Z,7.80
2019-05-07T04:15:48.767Z,7.80
2019-05-07T04:17:11.909Z,7.80
2019-05-07T04:18:03.274Z,7.80
2019-05-07T04:19:06.515Z,7.80
2019-05-07T04:20:13.408Z,7.80
2019-05-07T04:21:17.760Z,7.80
2019-05-07T04:22:26.519Z,7.80
2019-05-07T04:23:29.134Z,7.80
2019-05-07T04:24:46.675Z,7.80
2019-05-07T04:26:08.835Z,7.90
2019-05-07T04:27:27.936Z,7.80
2019-05-07T04:28:57.529Z,7.90
2019-05-07T04:30:03.614Z,7.90
2019-05-07T04:31:09.077Z,7.90
2019-05-07T04:32:14.527Z,7.90
2019-05-07T04:33:23.599Z,7.90
2019-05-07T04:34:53.202Z,7.90
2019-05-07T04:36:07.362Z,7.90
2019-05-07T04:37:13.244Z,7.90
2019-05-07T04:38:18.439Z,7.90
2019-05-07T04:39:23.502Z,7.90
2019-05-07T04:40:28.761Z,7.90
2019-05-07T04:41:33.461Z,7.90
2019-05-07T04:42:38.878Z,7.90
2019-05-07T04:43:44.203Z,7.90
2019-05-07T04:44:48.895Z,7.90
2019-05-07T04:45:54.102Z,7.90
2019-05-07T04:46:58.811Z,8.00
2019-05-07T04:48:03.541Z,8.00
2019-05-07T04:49:08.213Z,8.00
2019-05-07T04:50:32.939Z,8.00
2019-05-07T04:51:33.604Z,8.00
2019-05-07T04:52:38.250Z,8.00
2019-05-07T04:53:43.253Z,8.00
2019-05-07T04:54:48.034Z,8.00
2019-05-07T04:55:53.704Z,8.00
2019-05-07T04:57:03.444Z,8.00
2019-05-07T04:58:09.030Z,8.00
2019-05-07T04:59:13.301Z,7.90
2019-05-07T05:00:18.138Z,8.00
2019-05-07T05:01:24.126Z,8.00
2019-05-07T05:02:43.306Z,8.00
2019-05-07T05:03:46.898Z,8.00
2019-05-07T05:04:53.093Z,8.00
2019-05-07T05:05:57.965Z,8.00
2019-05-07T05:07:02.818Z,8.00
2019-05-07T05:08:07.975Z,8.00
2019-05-07T05:09:13.329Z,8.00
2019-05-07T05:10:18.194Z,8.10
2019-05-07T05:11:23.835Z,8.00
2019-05-07T05:12:28.845Z,8.10
2019-05-07T05:13:33.951Z,8.10
2019-05-07T05:14:43.687Z,8.10
2019-05-07T05:15:49.806Z,8.10
2019-05-07T05:16:56.754Z,8.10
2019-05-07T05:18:02.714Z,8.10
2019-05-07T05:19:07.693Z,8.10
2019-05-07T05:20:13.230Z,8.10
2019-05-07T05:21:25.808Z,8.10
2019-05-07T05:22:46.422Z,8.10
2019-05-07T05:23:56.181Z,8.10
2019-05-07T05:25:16.802Z,8.10
2019-05-07T05:26:22.103Z,8.10
2019-05-07T05:27:29.955Z,8.10
2019-05-07T05:28:33.334Z,8.10
2019-05-07T05:29:38.627Z,8.10
2019-05-07T05:30:47.141Z,8.10
2019-05-07T05:31:52.873Z,8.20
2019-05-07T05:33:01.084Z,8.20
2019-05-07T05:34:04.321Z,8.20
2019-05-07T05:35:12.655Z,8.20
2019-05-07T05:36:17.169Z,8.20
2019-05-07T05:37:23.306Z,8.30
2019-05-07T05:38:28.391Z,8.30
2019-05-07T05:39:33.314Z,8.30
2019-05-07T05:40:38.978Z,8.30
2019-05-07T05:41:45.850Z,8.30
2019-05-07T05:42:56.550Z,8.40
2019-05-07T05:44:22.772Z,8.40
2019-05-07T05:45:38.309Z,8.40
2019-05-07T05:46:44.698Z,8.50
2019-05-07T05:48:03.633Z,8.40
2019-05-07T05:48:55.785Z,8.40
2019-05-07T05:50:01.949Z,8.40
2019-05-07T05:51:26.026Z,8.40
2019-05-07T05:52:42.363Z,8.40
2019-05-07T05:53:54.032Z,8.50
2019-05-07T05:55:15.766Z,8.40
2019-05-07T05:56:29.229Z,8.50
2019-05-07T05:57:52.008Z,8.50
2019-05-07T05:59:06.881Z,8.50
2019-05-07T06:00:29.474Z,8.40
2019-05-07T06:01:52.118Z,8.50
2019-05-07T06:03:16.770Z,8.50
2019-05-07T06:04:33.032Z,8.50
2019-05-07T06:05:49.083Z,8.50
2019-05-07T06:07:08.773Z,8.50
2019-05-07T06:08:23.995Z,8.50
2019-05-07T06:09:44.594Z,8.50
2019-05-07T06:11:04.931Z,8.50
2019-05-07T06:12:25.692Z,8.50
2019-05-07T06:13:38.671Z,8.50
2019-05-07T06:14:50.287Z,8.50
2019-05-07T06:16:13.887Z,8.50
2019-05-07T06:17:33.703Z,8.60
2019-05-07T06:18:55.932Z,8.60
2019-05-07T06:20:26.084Z,8.60
2019-05-07T06:21:52.576Z,8.60
2019-05-07T06:23:34.224Z,8.70
2019-05-07T06:25:07.181Z,8.70
2019-05-07T06:26:12.754Z,8.70
2019-05-07T06:27:17.719Z,8.70
2019-05-07T06:28:22.822Z,8.70
2019-05-07T06:29:32.953Z,8.80
2019-05-07T06:30:37.683Z,8.80
2019-05-07T06:31:44.621Z,8.80
2019-05-07T06:32:49.679Z,8.80
2019-05-07T06:33:57.451Z,8.90
2019-05-07T06:35:03.223Z,8.90
2019-05-07T06:36:12.779Z,9.00
2019-05-07T06:37:18.172Z,9.00
2019-05-07T06:38:23.523Z,9.10
2019-05-07T06:39:35.656Z,9.10
2019-05-07T06:40:48.733Z,9.10
2019-05-07T06:42:12.689Z,9.00
2019-05-07T06:43:42.179Z,9.20
2019-05-07T06:45:03.484Z,9.20
2019-05-07T06:46:08.730Z,9.20
2019-05-07T06:47:13.954Z,9.20
2019-05-07T06:48:34.708Z,9.20
2019-05-07T06:49:26.285Z,9.20
2019-05-07T06:50:32.660Z,9.30
2019-05-07T06:51:37.700Z,9.30
2019-05-07T06:52:46.004Z,9.30
2019-05-07T06:53:53.998Z,9.40
2019-05-07T06:55:03.205Z,9.40
2019-05-07T06:56:12.919Z,9.40
2019-05-07T06:57:19.520Z,9.40
2019-05-07T06:58:28.150Z,9.50
2019-05-07T06:59:47.142Z,9.50
2019-05-07T07:01:06.448Z,9.50
2019-05-07T07:02:45.671Z,9.60
2019-05-07T07:04:23.680Z,9.60
2019-05-07T07:05:46.146Z,9.60
2019-05-07T07:07:31.001Z,9.70
2019-05-07T07:08:37.520Z,9.70
2019-05-07T07:10:24.277Z,9.70
2019-05-07T07:11:45.602Z,9.70
2019-05-07T07:12:52.895Z,9.80
2019-05-07T07:13:58.610Z,9.80
2019-05-07T07:15:05.081Z,9.80
2019-05-07T07:16:10.030Z,9.90
2019-05-07T07:17:15.939Z,9.90
2019-05-07T07:18:24.290Z,9.90
2019-05-07T07:19:29.279Z,9.90
2019-05-07T07:20:34.354Z,9.90
2019-05-07T07:21:39.238Z,10.00
2019-05-07T07:22:45.876Z,10.00
2019-05-07T07:23:52.358Z,10.00
2019-05-07T07:25:06.465Z,10.00
2019-05-07T07:26:09.991Z,10.00
2019-05-07T07:27:16.845Z,10.10
2019-05-07T07:28:35.564Z,10.10
2019-05-07T07:29:48.962Z,10.10
2019-05-07T07:31:22.252Z,10.10
2019-05-07T07:32:33.201Z,10.20
2019-05-07T07:33:40.145Z,10.20
2019-05-07T07:34:48.775Z,10.30
2019-05-07T07:35:53.566Z,10.30
2019-05-07T07:37:23.004Z,10.40
2019-05-07T07:38:35.538Z,10.40
2019-05-07T07:39:40.407Z,10.30
2019-05-07T07:40:46.993Z,10.30
2019-05-07T07:41:54.971Z,10.30
2019-05-07T07:43:07.410Z,10.30
2019-05-07T07:44:13.223Z,10.30
2019-05-07T07:45:19.199Z,10.50
2019-05-07T07:46:24.644Z,10.50
2019-05-07T07:47:29.557Z,10.50
2019-05-07T07:48:34.298Z,10.50
2019-05-07T07:49:42.079Z,10.60
2019-05-07T07:50:47.446Z,10.50
2019-05-07T07:51:52.781Z,10.60
2019-05-07T07:52:57.839Z,10.60
2019-05-07T07:54:02.934Z,10.60
2019-05-07T07:55:08.118Z,10.60
2019-05-07T07:56:52.178Z,10.60
2019-05-07T07:58:15.223Z,10.60
2019-05-07T07:59:38.189Z,10.60
2019-05-07T08:00:49.197Z,10.60
2019-05-07T08:02:05.514Z,10.60
2019-05-07T08:03:13.356Z,10.70
2019-05-07T08:04:18.505Z,10.70
2019-05-07T08:05:23.933Z,10.70
2019-05-07T08:06:32.538Z,10.70
2019-05-07T08:07:37.309Z,10.70
2019-05-07T08:08:42.498Z,10.80
2019-05-07T08:09:48.134Z,10.80
2019-05-07T08:10:53.578Z,10.80
2019-05-07T08:11:58.657Z,10.90
2019-05-07T08:13:04.037Z,10.90
2019-05-07T08:14:12.411Z,10.90
2019-05-07T08:15:23.691Z,10.90
2019-05-07T08:16:26.287Z,10.90
2019-05-07T08:17:32.630Z,10.90
2019-05-07T08:18:40.297Z,10.90
2019-05-07T08:19:47.963Z,11.20
2019-05-07T08:20:54.079Z,11.00
2019-05-07T08:21:59.733Z,11.00
2019-05-07T08:23:05.271Z,11.00
2019-05-07T08:24:13.535Z,11.00
2019-05-07T08:25:21.316Z,11.00
2019-05-07T08:26:32.335Z,11.00
2019-05-07T08:27:38.040Z,11.00
2019-05-07T08:28:45.959Z,11.00
2019-05-07T08:29:52.497Z,11.00
2019-05-07T08:31:14.942Z,11.00
2019-05-07T08:32:26.769Z,11.00
2019-05-07T08:33:35.370Z,11.00
2019-05-07T08:34:44.791Z,11.00
2019-05-07T08:35:54.269Z,11.10
2019-05-07T08:37:08.432Z,11.10
2019-05-07T08:38:14.424Z,11.10
2019-05-07T08:39:24.718Z,11.10
2019-05-07T08:40:26.590Z,11.10
2019-05-07T08:41:35.499Z,11.20
2019-05-07T08:42:41.908Z,11.20
2019-05-07T08:43:51.813Z,11.30
2019-05-07T08:45:25.140Z,11.30
2019-05-07T08:46:53.085Z,11.30
2019-05-07T08:48:02.147Z,11.30
2019-05-07T08:49:07.667Z,11.30
2019-05-07T08:50:12.706Z,11.30
2019-05-07T08:51:17.613Z,11.30
2019-05-07T08:52:24.395Z,11.30
2019-05-07T08:53:32.817Z,11.30
2019-05-07T08:54:37.763Z,11.30
2019-05-07T08:55:59.738Z,11.30
2019-05-07T08:57:07.743Z,11.30
2019-05-07T08:58:13.919Z,11.30
2019-05-07T08:59:18.722Z,11.30
2019-05-07T09:00:25.230Z,11.30
2019-05-07T09:01:33.051Z,11.30
2019-05-07T09:02:37.775Z,11.30
2019-05-07T09:03:45.594Z,11.30
2019-05-07T09:04:52.332Z,11.30
2019-05-07T09:05:56.846Z,11.30
2019-05-07T09:07:02.770Z,11.30
2019-05-07T09:08:07.642Z,11.30
2019-05-07T09:09:13.468Z,11.30
2019-05-07T09:10:18.408Z,11.40
2019-05-07T09:11:23.237Z,11.50
2019-05-07T09:12:28.401Z,11.60
2019-05-07T09:13:36.339Z,11.70
2019-05-07T09:14:42.532Z,11.70
2019-05-07T09:15:56.234Z,11.70
2019-05-07T09:17:04.263Z,11.70
2019-05-07T09:18:19.821Z,11.70
2019-05-07T09:19:28.402Z,11.80
2019-05-07T09:20:42.627Z,11.80
2019-05-07T09:21:47.876Z,11.90
2019-05-07T09:22:53.245Z,11.90
2019-05-07T09:23:58.841Z,11.90
2019-05-07T09:25:04.758Z,11.90
2019-05-07T09:26:13.851Z,11.90
2019-05-07T09:27:42.385Z,11.90
2019-05-07T09:29:02.635Z,12.00
2019-05-07T09:30:29.727Z,12.00
2019-05-07T09:31:57.608Z,12.10
2019-05-07T09:33:14.468Z,12.10
2019-05-07T09:34:22.117Z,12.10
2019-05-07T09:35:45.273Z,12.00
2019-05-07T09:36:55.605Z,12.10
2019-05-07T09:38:03.189Z,12.10
2019-05-07T09:39:09.018Z,12.20
2019-05-07T09:40:14.120Z,12.20
2019-05-07T09:41:32.845Z,12.10
2019-05-07T09:42:38.047Z,12.20
2019-05-07T09:43:43.197Z,12.20
2019-05-07T09:44:52.840Z,12.20
2019-05-07T09:45:57.763Z,12.30
2019-05-07T09:47:02.705Z,12.30
2019-05-07T09:48:16.502Z,12.40
2019-05-07T09:49:22.562Z,12.50
2019-05-07T09:50:27.419Z,12.50
2019-05-07T09:53:35.092Z,12.60
2019-05-07T09:54:42.833Z,12.60
2019-05-07T09:55:51.618Z,12.60
2019-05-07T09:57:06.783Z,12.60
2019-05-07T09:58:12.596Z,12.60
2019-05-07T09:59:19.377Z,12.60
2019-05-07T10:00:25.734Z,12.60
2019-05-07T10:01:31.875Z,12.60
2019-05-07T10:02:40.011Z,12.60
2019-05-07T10:03:45.479Z,12.60
2019-05-07T10:04:52.709Z,12.50
2019-05-07T10:05:57.207Z,12.50
2019-05-07T10:07:02.533Z,12.50
2019-05-07T10:10:12.792Z,12.40
2019-05-07T10:11:32.935Z,12.30
2019-05-07T10:12:52.804Z,12.20
2019-05-07T10:14:02.441Z,12.10
2019-05-07T10:15:07.575Z,12.10
2019-05-07T10:16:13.397Z,12.10
2019-05-07T10:17:30.173Z,12.10
2019-05-07T10:18:45.372Z,12.10
2019-05-07T10:19:52.259Z,12.10
2019-05-07T10:20:57.514Z,12.10
2019-05-07T10:22:05.898Z,12.10
2019-05-07T10:23:22.415Z,12.10
2019-05-07T10:24:35.651Z,12.10
2019-05-07T10:25:53.195Z,12.10
2019-05-07T10:26:58.199Z,12.10
2019-05-07T10:28:05.628Z,12.10
2019-05-07T10:29:14.218Z,12.10
2019-05-07T10:30:22.649Z,12.10
2019-05-07T10:31:29.052Z,12.10
2019-05-07T10:32:43.230Z,12.10
2019-05-07T10:33:49.119Z,12.10
2019-05-07T10:35:08.096Z,12.00
2019-05-07T10:36:02.103Z,12.00
2019-05-07T10:37:12.006Z,12.00
2019-05-07T10:38:22.873Z,12.00
2019-05-07T10:39:27.825Z,12.10
2019-05-07T10:40:32.887Z,12.10
2019-05-07T10:41:42.326Z,12.10
2019-05-07T10:42:47.946Z,12.10
2019-05-07T10:43:53.216Z,12.20
2019-05-07T10:45:09.100Z,12.20
2019-05-07T10:46:33.081Z,12.30
2019-05-07T10:47:56.335Z,12.30
2019-05-07T10:49:29.175Z,12.50
2019-05-07T10:50:45.017Z,12.50
2019-05-07T10:51:52.139Z,12.50
2019-05-07T10:52:56.878Z,12.50
2019-05-07T10:54:27.818Z,12.50
2019-05-07T10:55:34.869Z,12.50
2019-05-07T10:56:47.721Z,12.50
2019-05-07T10:57:53.173Z,12.60
2019-05-07T10:59:06.924Z,12.60
2019-05-07T11:00:09.609Z,12.60
2019-05-07T11:01:16.955Z,12.60
2019-05-07T11:02:26.194Z,12.60
2019-05-07T11:03:32.427Z,12.70
2019-05-07T11:04:42.607Z,12.70
2019-05-07T11:05:45.085Z,12.70
2019-05-07T11:06:52.154Z,12.80
2019-05-07T11:07:59.202Z,12.70
2019-05-07T11:09:08.159Z,12.80
2019-05-07T11:10:13.579Z,12.80
2019-05-07T11:11:22.751Z,12.90
2019-05-07T11:12:27.855Z,13.00
2019-05-07T11:13:35.160Z,13.00
2019-05-07T11:14:40.090Z,13.10
2019-05-07T11:15:51.699Z,13.00
2019-05-07T11:17:22.322Z,13.00
2019-05-07T11:18:32.981Z,13.20
2019-05-07T11:19:41.581Z,13.00
2019-05-07T11:20:51.162Z,12.90
2019-05-07T11:21:56.465Z,13.00
2019-05-07T11:23:03.013Z,13.00
2019-05-07T11:24:09.023Z,13.00
2019-05-07T11:25:13.997Z,12.90
2019-05-07T11:26:22.113Z,12.90
2019-05-07T11:27:33.221Z,12.80
2019-05-07T11:28:41.227Z,12.80
2019-05-07T11:29:46.198Z,12.80
2019-05-07T11:30:51.221Z,12.80
2019-05-07T11:31:59.191Z,12.70
2019-05-07T11:33:07.215Z,12.70
2019-05-07T11:34:14.696Z,12.50
2019-05-07T11:35:22.730Z,12.50
2019-05-07T11:36:27.601Z,12.40
2019-05-07T11:37:35.655Z,12.40
2019-05-07T11:38:41.811Z,12.40
2019-05-07T11:39:48.426Z,12.30
2019-05-07T11:40:54.166Z,12.30
2019-05-07T11:42:24.424Z,12.20
2019-05-07T11:43:48.162Z,12.20
2019-05-07T11:44:55.018Z,12.20
2019-05-07T11:46:13.145Z,12.00
2019-05-07T11:47:26.640Z,12.10
2019-05-07T11:48:33.592Z,12.10
2019-05-07T11:49:58.288Z,12.00
2019-05-07T11:51:27.849Z,12.00
2019-05-07T11:52:36.354Z,11.90
2019-05-07T11:54:01.973Z,11.90
2019-05-07T11:55:09.082Z,11.90
2019-05-07T11:56:16.867Z,11.90
2019-05-07T11:57:22.129Z,11.90
2019-05-07T11:58:27.264Z,11.90
2019-05-07T11:59:41.835Z,11.90
2019-05-07T12:01:03.616Z,11.90
2019-05-07T12:02:07.189Z,11.90
2019-05-07T12:03:12.486Z,11.80
2019-05-07T12:04:17.186Z,11.80
2019-05-07T12:05:22.757Z,11.80
2019-05-07T12:06:33.933Z,11.80
2019-05-07T12:07:45.191Z,11.70
2019-05-07T12:08:57.551Z,11.70
2019-05-07T12:10:04.867Z,11.80
2019-05-07T12:11:08.826Z,11.80
2019-05-07T12:12:13.672Z,11.80
2019-05-07T12:13:19.187Z,11.80
2019-05-07T12:14:30.974Z,11.80
2019-05-07T12:15:32.458Z,11.80
2019-05-07T12:16:58.365Z,11.80
2019-05-07T12:18:03.419Z,11.80
2019-05-07T12:19:08.122Z,11.80
2019-05-07T12:20:13.285Z,11.80
2019-05-07T12:21:21.113Z,11.80
2019-05-07T12:22:46.282Z,11.80
2019-05-07T12:23:49.619Z,11.80
2019-05-07T12:24:57.039Z,11.80
2019-05-07T12:26:02.870Z,11.80
2019-05-07T12:27:09.313Z,11.80
2019-05-07T12:28:17.349Z,11.80
2019-05-07T12:29:22.185Z,11.80
2019-05-07T12:31:00.182Z,11.80
2019-05-07T12:32:25.326Z,11.90
2019-05-07T12:33:48.313Z,12.00
2019-05-07T12:35:07.232Z,12.10
2019-05-07T12:36:12.709Z,12.20
2019-05-07T12:37:18.120Z,12.20
2019-05-07T12:38:23.128Z,12.40
2019-05-07T12:39:29.399Z,12.50
2019-05-07T12:40:34.307Z,12.70
2019-05-07T12:41:39.123Z,12.90
2019-05-07T12:42:45.677Z,13.10
2019-05-07T12:43:53.069Z,13.30
2019-05-07T12:44:58.598Z,13.60
2019-05-07T12:46:04.319Z,13.80
2019-05-07T12:47:09.082Z,13.90
2019-05-07T12:48:14.326Z,14.00
2019-05-07T12:49:22.281Z,14.10
2019-05-07T12:50:29.468Z,14.10
2019-05-07T12:51:48.179Z,14.00
2019-05-07T12:53:02.203Z,14.00
2019-05-07T12:54:17.764Z,13.90
2019-05-07T12:55:35.690Z,13.90
2019-05-07T12:56:43.184Z,13.80
2019-05-07T12:57:55.298Z,13.70
2019-05-07T12:59:02.300Z,13.70
2019-05-07T13:00:29.266Z,13.50
2019-05-07T13:01:48.043Z,13.50
2019-05-07T13:03:12.602Z,13.50
2019-05-07T13:04:23.611Z,13.50
2019-05-07T13:05:28.329Z,13.50
2019-05-07T13:06:35.946Z,13.50
2019-05-07T13:07:57.752Z,13.50
2019-05-07T13:09:02.882Z,13.60
2019-05-07T13:10:08.697Z,13.80
2019-05-07T13:11:13.731Z,13.70
2019-05-07T13:12:18.686Z,13.70
2019-05-07T13:13:23.653Z,13.80
2019-05-07T13:14:28.981Z,13.80
2019-05-07T13:15:33.702Z,13.80
2019-05-07T13:16:38.692Z,13.70
2019-05-07T13:17:43.823Z,13.80
2019-05-07T13:18:48.704Z,13.80
2019-05-07T13:19:54.891Z,13.90
2019-05-07T13:21:02.400Z,13.90
2019-05-07T13:22:08.122Z,13.90
2019-05-07T13:23:14.313Z,14.00
2019-05-07T13:24:22.670Z,14.00
2019-05-07T13:25:34.386Z,13.90
2019-05-07T13:26:51.845Z,14.00
2019-05-07T13:27:57.167Z,13.90
2019-05-07T13:29:12.796Z,13.90
2019-05-07T13:30:18.258Z,13.90
2019-05-07T13:31:23.157Z,13.80
2019-05-07T13:32:29.107Z,13.80
2019-05-07T13:33:38.109Z,13.80
2019-05-07T13:34:42.714Z,13.70
2019-05-07T13:35:49.011Z,13.70
2019-05-07T13:37:08.049Z,13.60
2019-05-07T13:38:34.100Z,13.60
2019-05-07T13:39:43.769Z,13.50
2019-05-07T13:41:14.858Z,13.50
2019-05-07T13:42:37.480Z,13.50
2019-05-07T13:44:04.175Z,13.40
2019-05-07T13:45:16.631Z,13.40
2019-05-07T13:46:23.002Z,13.40
2019-05-07T13:47:37.246Z,13.40
2019-05-07T13:48:45.483Z,13.40
2019-05-07T13:49:53.743Z,13.50
2019-05-07T13:51:01.649Z,13.60
2019-05-07T13:52:09.202Z,13.50
2019-05-07T13:53:15.345Z,13.50
2019-05-07T13:54:23.137Z,13.60
2019-05-07T13:55:32.380Z,13.60
2019-05-07T13:56:37.306Z,13.60
2019-05-07T13:57:43.094Z,13.60
2019-05-07T13:58:52.208Z,13.50
2019-05-07T13:59:57.538Z,13.50
2019-05-07T14:01:25.180Z,13.50
2019-05-07T14:02:32.177Z,13.50
2019-05-07T14:03:37.281Z,13.50
2019-05-07T14:04:42.364Z,13.60
2019-05-07T14:06:09.239Z,13.60
2019-05-07T14:07:17.388Z,13.60
2019-05-07T14:08:23.124Z,13.60
2019-05-07T14:09:28.480Z,13.60
2019-05-07T14:10:33.953Z,13.60
2019-05-07T14:11:42.341Z,13.50
2019-05-07T14:12:46.196Z,13.60
2019-05-07T14:13:52.312Z,13.50
2019-05-07T14:14:58.194Z,13.50
2019-05-07T14:16:17.091Z,13.40
2019-05-07T14:17:23.098Z,13.40
2019-05-07T14:18:28.327Z,13.40
2019-05-07T14:20:04.907Z,13.40
2019-05-07T14:20:48.859Z,13.30
2019-05-07T14:22:15.455Z,13.30
2019-05-07T14:23:14.452Z,13.30
2019-05-07T14:24:19.415Z,13.30
2019-05-07T14:25:24.402Z,13.20
2019-05-07T14:26:36.262Z,13.10
2019-05-07T14:27:54.434Z,13.30
2019-05-07T14:29:07.614Z,13.30
2019-05-07T14:30:15.729Z,13.30
2019-05-07T14:31:23.139Z,13.30
2019-05-07T14:32:45.967Z,13.40
2019-05-07T14:33:55.959Z,13.40
2019-05-07T14:35:22.772Z,13.40
2019-05-07T14:36:39.094Z,13.40
2019-05-07T14:37:47.584Z,13.40
2019-05-07T14:38:52.348Z,13.40
2019-05-07T14:40:10.074Z,13.40
2019-05-07T14:41:13.412Z,13.40
2019-05-07T14:42:25.919Z,13.40
2019-05-07T14:44:00.114Z,13.40
2019-05-07T14:45:05.446Z,13.40
2019-05-07T14:46:22.125Z,13.40
2019-05-07T14:47:28.769Z,13.20
2019-05-07T14:48:37.975Z,13.40
2019-05-07T14:49:45.885Z,13.40
2019-05-07T14:50:53.075Z,13.40
2019-05-07T14:51:59.504Z,13.30
2019-05-07T14:53:16.676Z,13.30
2019-05-07T14:54:22.919Z,13.30
2019-05-07T14:55:32.427Z,13.30
2019-05-07T14:56:37.515Z,13.30
2019-05-07T14:57:42.443Z,13.30
2019-05-07T14:58:47.189Z,13.30
2019-05-07T14:59:52.539Z,13.40
2019-05-07T15:00:58.605Z,13.40
2019-05-07T15:02:03.688Z,13.30
2019-05-07T15:03:14.083Z,13.30
2019-05-07T15:04:22.151Z,13.40
2019-05-07T15:05:42.198Z,13.30
2019-05-07T15:06:51.942Z,13.30
2019-05-07T15:08:08.418Z,13.30
2019-05-07T15:09:08.692Z,13.30
2019-05-07T15:10:13.870Z,13.20
2019-05-07T15:11:18.984Z,13.10
2019-05-07T15:12:33.155Z,13.10
2019-05-07T15:13:38.226Z,13.00
2019-05-07T15:14:44.450Z,13.00
2019-05-07T15:15:54.988Z,13.00
2019-05-07T15:17:05.777Z,13.00